sensor_id;sensor_type;location;lat;lon;timestamp;P1;durP1;ratioP1;P2;durP2;ratioP2
11823;SDS011;5969;50.780;7.726;2024-02-21T00:02:22;11.88;;;5.25;;
11823;SDS011;5969;50.780;7.726;2024-02-21T00:04:48;12.60;;;6.45;;
11823;SDS011;5969;50.780;7.726;2024-02-21T00:07:15;14.65;;;6.13;;
11823;SDS011;5969;50.780;7.726;2024-02-21T00:09:44;8.63;;;5.32;;
11823;SDS011;5969;50.780;7.726;2024-02-21T00:12:11;9.73;;;5.65;;
11823;SDS011;5969;50.780;7.726;2024-02-21T00:14:39;11.77;;;5.72;;
11823;SDS011;5969;50.780;7.726;2024-02-21T00:17:06;9.60;;;5.75;;
11823;SDS011;5969;50.780;7.726;2024-02-21T00:19:34;12.90;;;5.72;;
11823;SDS011;5969;50.780;7.726;2024-02-21T00:22:03;11.52;;;5.88;;
11823;SDS011;5969;50.780;7.726;2024-02-21T00:24:30;8.60;;;6.25;;
11823;SDS011;5969;50.780;7.726;2024-02-21T00:26:59;13.35;;;6.72;;
11823;SDS011;5969;50.780;7.726;2024-02-21T00:29:26;13.10;;;6.15;;
11823;SDS011;5969;50.780;7.726;2024-02-21T00:31:54;11.85;;;6.45;;
11823;SDS011;5969;50.780;7.726;2024-02-21T00:34:21;13.45;;;6.90;;
11823;SDS011;5969;50.780;7.726;2024-02-21T00:36:48;10.35;;;6.38;;
11823;SDS011;5969;50.780;7.726;2024-02-21T00:39:16;12.48;;;6.57;;
11823;SDS011;5969;50.780;7.726;2024-02-21T00:41:43;10.75;;;6.50;;
11823;SDS011;5969;50.780;7.726;2024-02-21T00:44:11;7.45;;;5.70;;
11823;SDS011;5969;50.780;7.726;2024-02-21T00:46:38;11.30;;;5.95;;
11823;SDS011;5969;50.780;7.726;2024-02-21T00:49:06;14.73;;;6.68;;
11823;SDS011;5969;50.780;7.726;2024-02-21T00:51:33;14.65;;;7.15;;
11823;SDS011;5969;50.780;7.726;2024-02-21T00:54:00;10.60;;;6.13;;
11823;SDS011;5969;50.780;7.726;2024-02-21T00:56:27;14.70;;;7.10;;
11823;SDS011;5969;50.780;7.726;2024-02-21T00:58:57;13.20;;;6.88;;
11823;SDS011;5969;50.780;7.726;2024-02-21T01:01:26;13.45;;;7.15;;
11823;SDS011;5969;50.780;7.726;2024-02-21T01:03:53;12.35;;;7.25;;
11823;SDS011;5969;50.780;7.726;2024-02-21T01:06:20;11.75;;;7.05;;
11823;SDS011;5969;50.780;7.726;2024-02-21T01:08:48;10.82;;;6.25;;
11823;SDS011;5969;50.780;7.726;2024-02-21T01:11:16;13.90;;;7.80;;
11823;SDS011;5969;50.780;7.726;2024-02-21T01:13:43;12.10;;;7.10;;
11823;SDS011;5969;50.780;7.726;2024-02-21T01:16:11;12.68;;;6.57;;
11823;SDS011;5969;50.780;7.726;2024-02-21T01:18:39;12.50;;;6.43;;
11823;SDS011;5969;50.780;7.726;2024-02-21T01:21:07;12.02;;;6.40;;
11823;SDS011;5969;50.780;7.726;2024-02-21T01:23:35;13.95;;;7.00;;
11823;SDS011;5969;50.780;7.726;2024-02-21T01:26:02;10.68;;;6.55;;
11823;SDS011;5969;50.780;7.726;2024-02-21T01:28:29;11.55;;;5.90;;
11823;SDS011;5969;50.780;7.726;2024-02-21T01:30:57;15.63;;;6.95;;
11823;SDS011;5969;50.780;7.726;2024-02-21T01:33:24;12.88;;;6.40;;
11823;SDS011;5969;50.780;7.726;2024-02-21T01:35:53;15.80;;;6.78;;
11823;SDS011;5969;50.780;7.726;2024-02-21T01:38:20;11.73;;;6.53;;
11823;SDS011;5969;50.780;7.726;2024-02-21T01:40:47;10.68;;;6.18;;
11823;SDS011;5969;50.780;7.726;2024-02-21T01:43:15;11.68;;;6.82;;
11823;SDS011;5969;50.780;7.726;2024-02-21T01:45:43;10.07;;;6.40;;
11823;SDS011;5969;50.780;7.726;2024-02-21T01:48:10;13.82;;;6.40;;
11823;SDS011;5969;50.780;7.726;2024-02-21T01:50:38;13.27;;;6.22;;
11823;SDS011;5969;50.780;7.726;2024-02-21T01:53:06;12.82;;;6.47;;
11823;SDS011;5969;50.780;7.726;2024-02-21T01:55:34;12.85;;;6.68;;
11823;SDS011;5969;50.780;7.726;2024-02-21T01:58:02;9.18;;;5.97;;
11823;SDS011;5969;50.780;7.726;2024-02-21T02:00:29;14.48;;;6.65;;
11823;SDS011;5969;50.780;7.726;2024-02-21T02:02:57;11.60;;;6.53;;
11823;SDS011;5969;50.780;7.726;2024-02-21T02:05:25;13.10;;;6.70;;
11823;SDS011;5969;50.780;7.726;2024-02-21T02:07:52;11.20;;;6.38;;
11823;SDS011;5969;50.780;7.726;2024-02-21T02:10:21;10.38;;;5.97;;
11823;SDS011;5969;50.780;7.726;2024-02-21T02:12:48;11.05;;;6.22;;
11823;SDS011;5969;50.780;7.726;2024-02-21T02:15:15;12.98;;;6.15;;
11823;SDS011;5969;50.780;7.726;2024-02-21T02:17:42;10.80;;;6.40;;
11823;SDS011;5969;50.780;7.726;2024-02-21T02:20:10;11.32;;;6.50;;
11823;SDS011;5969;50.780;7.726;2024-02-21T02:22:37;10.20;;;6.85;;
11823;SDS011;5969;50.780;7.726;2024-02-21T02:25:07;12.18;;;6.25;;
11823;SDS011;5969;50.780;7.726;2024-02-21T02:27:41;10.68;;;6.45;;
11823;SDS011;5969;50.780;7.726;2024-02-21T02:30:10;16.75;;;7.43;;
11823;SDS011;5969;50.780;7.726;2024-02-21T02:32:37;12.18;;;7.25;;
11823;SDS011;5969;50.780;7.726;2024-02-21T02:35:04;10.43;;;5.93;;
11823;SDS011;5969;50.780;7.726;2024-02-21T02:37:32;10.70;;;6.65;;
11823;SDS011;5969;50.780;7.726;2024-02-21T02:39:59;13.85;;;6.45;;
11823;SDS011;5969;50.780;7.726;2024-02-21T02:42:27;11.05;;;6.53;;
11823;SDS011;5969;50.780;7.726;2024-02-21T02:44:55;12.73;;;6.03;;
11823;SDS011;5969;50.780;7.726;2024-02-21T02:47:23;11.02;;;6.30;;
11823;SDS011;5969;50.780;7.726;2024-02-21T02:49:50;11.18;;;5.82;;
11823;SDS011;5969;50.780;7.726;2024-02-21T02:52:17;12.30;;;6.60;;
11823;SDS011;5969;50.780;7.726;2024-02-21T02:54:44;8.60;;;5.78;;
11823;SDS011;5969;50.780;7.726;2024-02-21T02:57:16;11.23;;;6.80;;
11823;SDS011;5969;50.780;7.726;2024-02-21T02:59:48;12.38;;;6.45;;
11823;SDS011;5969;50.780;7.726;2024-02-21T03:02:15;9.13;;;5.53;;
11823;SDS011;5969;50.780;7.726;2024-02-21T03:04:42;10.45;;;5.78;;
11823;SDS011;5969;50.780;7.726;2024-02-21T03:07:09;9.60;;;5.78;;
11823;SDS011;5969;50.780;7.726;2024-02-21T03:09:37;9.38;;;5.80;;
11823;SDS011;5969;50.780;7.726;2024-02-21T03:12:05;12.35;;;6.57;;
11823;SDS011;5969;50.780;7.726;2024-02-21T03:14:32;12.85;;;6.18;;
11823;SDS011;5969;50.780;7.726;2024-02-21T03:17:01;12.32;;;6.15;;
11823;SDS011;5969;50.780;7.726;2024-02-21T03:19:29;11.68;;;5.97;;
11823;SDS011;5969;50.780;7.726;2024-02-21T03:21:57;11.68;;;5.85;;
11823;SDS011;5969;50.780;7.726;2024-02-21T03:24:24;14.05;;;6.22;;
11823;SDS011;5969;50.780;7.726;2024-02-21T03:26:51;9.07;;;5.80;;
11823;SDS011;5969;50.780;7.726;2024-02-21T03:29:18;10.60;;;5.47;;
11823;SDS011;5969;50.780;7.726;2024-02-21T03:31:46;13.32;;;6.35;;
11823;SDS011;5969;50.780;7.726;2024-02-21T03:34:14;10.57;;;5.72;;
11823;SDS011;5969;50.780;7.726;2024-02-21T03:36:41;11.05;;;5.45;;
11823;SDS011;5969;50.780;7.726;2024-02-21T03:39:08;10.55;;;5.57;;
11823;SDS011;5969;50.780;7.726;2024-02-21T03:41:36;10.25;;;6.05;;
11823;SDS011;5969;50.780;7.726;2024-02-21T03:44:03;10.07;;;5.72;;
11823;SDS011;5969;50.780;7.726;2024-02-21T03:46:33;10.23;;;5.35;;
11823;SDS011;5969;50.780;7.726;2024-02-21T03:49:00;10.05;;;6.10;;
11823;SDS011;5969;50.780;7.726;2024-02-21T03:51:29;11.77;;;5.22;;
11823;SDS011;5969;50.780;7.726;2024-02-21T03:53:56;7.20;;;5.65;;
11823;SDS011;5969;50.780;7.726;2024-02-21T03:56:23;10.25;;;5.32;;
11823;SDS011;5969;50.780;7.726;2024-02-21T03:58:50;9.68;;;5.25;;
11823;SDS011;5969;50.780;7.726;2024-02-21T04:01:18;11.98;;;5.70;;
11823;SDS011;5969;50.780;7.726;2024-02-21T04:03:45;9.68;;;5.25;;
11823;SDS011;5969;50.780;7.726;2024-02-21T04:06:12;13.30;;;5.03;;
11823;SDS011;5969;50.780;7.726;2024-02-21T04:08:41;13.32;;;5.32;;
11823;SDS011;5969;50.780;7.726;2024-02-21T04:11:08;12.35;;;5.80;;
11823;SDS011;5969;50.780;7.726;2024-02-21T04:13:35;11.02;;;5.13;;
11823;SDS011;5969;50.780;7.726;2024-02-21T04:16:03;9.65;;;5.05;;
11823;SDS011;5969;50.780;7.726;2024-02-21T04:18:31;13.23;;;5.45;;
11823;SDS011;5969;50.780;7.726;2024-02-21T04:20:58;12.05;;;6.13;;
11823;SDS011;5969;50.780;7.726;2024-02-21T04:23:25;10.18;;;5.07;;
11823;SDS011;5969;50.780;7.726;2024-02-21T04:25:54;11.27;;;4.70;;
11823;SDS011;5969;50.780;7.726;2024-02-21T04:28:21;13.20;;;5.30;;
11823;SDS011;5969;50.780;7.726;2024-02-21T04:30:48;8.40;;;4.88;;
11823;SDS011;5969;50.780;7.726;2024-02-21T04:33:15;12.07;;;5.43;;
11823;SDS011;5969;50.780;7.726;2024-02-21T04:35:43;11.05;;;4.28;;
11823;SDS011;5969;50.780;7.726;2024-02-21T04:38:10;11.77;;;5.28;;
11823;SDS011;5969;50.780;7.726;2024-02-21T04:40:37;11.80;;;5.47;;
11823;SDS011;5969;50.780;7.726;2024-02-21T04:43:05;8.18;;;4.35;;
11823;SDS011;5969;50.780;7.726;2024-02-21T04:45:33;10.88;;;4.82;;
11823;SDS011;5969;50.780;7.726;2024-02-21T04:48:00;12.90;;;5.85;;
11823;SDS011;5969;50.780;7.726;2024-02-21T04:50:27;11.45;;;5.05;;
11823;SDS011;5969;50.780;7.726;2024-02-21T04:52:54;12.40;;;5.32;;
11823;SDS011;5969;50.780;7.726;2024-02-21T04:55:22;12.10;;;4.75;;
11823;SDS011;5969;50.780;7.726;2024-02-21T04:57:49;12.40;;;5.47;;
11823;SDS011;5969;50.780;7.726;2024-02-21T05:00:18;7.97;;;4.78;;
11823;SDS011;5969;50.780;7.726;2024-02-21T05:02:45;11.85;;;5.40;;
11823;SDS011;5969;50.780;7.726;2024-02-21T05:05:12;9.88;;;4.70;;
11823;SDS011;5969;50.780;7.726;2024-02-21T05:07:40;13.02;;;5.07;;
11823;SDS011;5969;50.780;7.726;2024-02-21T05:10:07;9.95;;;4.93;;
11823;SDS011;5969;50.780;7.726;2024-02-21T05:12:35;10.35;;;4.97;;
11823;SDS011;5969;50.780;7.726;2024-02-21T05:15:02;13.07;;;5.03;;
11823;SDS011;5969;50.780;7.726;2024-02-21T05:17:31;11.85;;;5.22;;
11823;SDS011;5969;50.780;7.726;2024-02-21T05:19:58;12.77;;;4.75;;
11823;SDS011;5969;50.780;7.726;2024-02-21T05:22:25;11.65;;;4.55;;
11823;SDS011;5969;50.780;7.726;2024-02-21T05:24:52;14.60;;;5.13;;
11823;SDS011;5969;50.780;7.726;2024-02-21T05:27:20;9.68;;;5.20;;
11823;SDS011;5969;50.780;7.726;2024-02-21T05:29:47;12.57;;;4.90;;
11823;SDS011;5969;50.780;7.726;2024-02-21T05:32:14;9.95;;;4.82;;
11823;SDS011;5969;50.780;7.726;2024-02-21T05:34:43;9.18;;;4.97;;
11823;SDS011;5969;50.780;7.726;2024-02-21T05:37:10;9.95;;;4.90;;
11823;SDS011;5969;50.780;7.726;2024-02-21T05:39:38;10.75;;;5.30;;
11823;SDS011;5969;50.780;7.726;2024-02-21T05:42:05;10.13;;;4.63;;
11823;SDS011;5969;50.780;7.726;2024-02-21T05:44:32;10.38;;;4.63;;
11823;SDS011;5969;50.780;7.726;2024-02-21T05:46:59;11.63;;;5.30;;
11823;SDS011;5969;50.780;7.726;2024-02-21T05:49:27;9.73;;;4.80;;
11823;SDS011;5969;50.780;7.726;2024-02-21T05:51:55;14.68;;;5.03;;
11823;SDS011;5969;50.780;7.726;2024-02-21T05:54:22;13.95;;;5.60;;
11823;SDS011;5969;50.780;7.726;2024-02-21T05:56:50;12.48;;;5.30;;
11823;SDS011;5969;50.780;7.726;2024-02-21T05:59:18;8.43;;;4.55;;
11823;SDS011;5969;50.780;7.726;2024-02-21T06:01:54;11.68;;;5.05;;
11823;SDS011;5969;50.780;7.726;2024-02-21T06:04:22;9.93;;;5.57;;
11823;SDS011;5969;50.780;7.726;2024-02-21T06:06:49;14.00;;;4.55;;
11823;SDS011;5969;50.780;7.726;2024-02-21T06:09:18;11.02;;;5.30;;
11823;SDS011;5969;50.780;7.726;2024-02-21T06:11:45;10.23;;;5.07;;
11823;SDS011;5969;50.780;7.726;2024-02-21T06:14:16;12.88;;;5.07;;
11823;SDS011;5969;50.780;7.726;2024-02-21T06:16:43;12.05;;;5.28;;
11823;SDS011;5969;50.780;7.726;2024-02-21T06:19:11;10.63;;;5.05;;
11823;SDS011;5969;50.780;7.726;2024-02-21T06:21:38;10.60;;;4.50;;
11823;SDS011;5969;50.780;7.726;2024-02-21T06:24:05;11.43;;;5.30;;
11823;SDS011;5969;50.780;7.726;2024-02-21T06:26:36;9.45;;;5.32;;
11823;SDS011;5969;50.780;7.726;2024-02-21T06:29:05;9.98;;;5.13;;
11823;SDS011;5969;50.780;7.726;2024-02-21T06:31:32;12.27;;;4.85;;
11823;SDS011;5969;50.780;7.726;2024-02-21T06:33:59;8.30;;;4.65;;
11823;SDS011;5969;50.780;7.726;2024-02-21T06:36:27;10.45;;;4.63;;
11823;SDS011;5969;50.780;7.726;2024-02-21T06:38:54;8.57;;;5.15;;
11823;SDS011;5969;50.780;7.726;2024-02-21T06:41:21;9.90;;;5.45;;
11823;SDS011;5969;50.780;7.726;2024-02-21T06:43:49;11.70;;;4.93;;
11823;SDS011;5969;50.780;7.726;2024-02-21T06:46:22;13.27;;;4.53;;
11823;SDS011;5969;50.780;7.726;2024-02-21T06:48:50;11.40;;;4.97;;
11823;SDS011;5969;50.780;7.726;2024-02-21T06:51:17;10.63;;;4.85;;
11823;SDS011;5969;50.780;7.726;2024-02-21T06:53:45;14.13;;;5.10;;
11823;SDS011;5969;50.780;7.726;2024-02-21T06:56:12;10.45;;;4.47;;
11823;SDS011;5969;50.780;7.726;2024-02-21T06:58:39;10.57;;;5.05;;
11823;SDS011;5969;50.780;7.726;2024-02-21T07:01:08;10.52;;;4.90;;
11823;SDS011;5969;50.780;7.726;2024-02-21T07:03:35;10.05;;;4.78;;
11823;SDS011;5969;50.780;7.726;2024-02-21T07:06:03;13.98;;;4.80;;
11823;SDS011;5969;50.780;7.726;2024-02-21T07:08:30;9.68;;;4.32;;
11823;SDS011;5969;50.780;7.726;2024-02-21T07:10:58;8.45;;;4.18;;
11823;SDS011;5969;50.780;7.726;2024-02-21T07:13:25;11.32;;;5.28;;
11823;SDS011;5969;50.780;7.726;2024-02-21T07:15:52;11.13;;;4.75;;
11823;SDS011;5969;50.780;7.726;2024-02-21T07:18:21;10.75;;;4.60;;
11823;SDS011;5969;50.780;7.726;2024-02-21T07:20:53;12.55;;;5.50;;
11823;SDS011;5969;50.780;7.726;2024-02-21T07:23:20;8.45;;;4.45;;
11823;SDS011;5969;50.780;7.726;2024-02-21T07:25:47;15.80;;;5.03;;
11823;SDS011;5969;50.780;7.726;2024-02-21T07:28:15;11.30;;;4.60;;
11823;SDS011;5969;50.780;7.726;2024-02-21T07:30:42;11.70;;;4.88;;
11823;SDS011;5969;50.780;7.726;2024-02-21T07:33:09;7.65;;;4.70;;
11823;SDS011;5969;50.780;7.726;2024-02-21T07:35:38;11.60;;;4.50;;
11823;SDS011;5969;50.780;7.726;2024-02-21T07:38:10;8.27;;;4.35;;
11823;SDS011;5969;50.780;7.726;2024-02-21T07:40:37;10.38;;;4.30;;
11823;SDS011;5969;50.780;7.726;2024-02-21T07:43:05;9.27;;;4.25;;
11823;SDS011;5969;50.780;7.726;2024-02-21T07:45:35;6.00;;;3.80;;
11823;SDS011;5969;50.780;7.726;2024-02-21T07:48:05;13.82;;;4.50;;
11823;SDS011;5969;50.780;7.726;2024-02-21T07:50:33;9.77;;;4.55;;
11823;SDS011;5969;50.780;7.726;2024-02-21T07:53:04;11.63;;;4.40;;
11823;SDS011;5969;50.780;7.726;2024-02-21T07:55:33;10.20;;;4.43;;
11823;SDS011;5969;50.780;7.726;2024-02-21T07:58:01;11.18;;;4.20;;
11823;SDS011;5969;50.780;7.726;2024-02-21T08:00:31;7.15;;;4.22;;
11823;SDS011;5969;50.780;7.726;2024-02-21T08:02:59;7.40;;;4.35;;
11823;SDS011;5969;50.780;7.726;2024-02-21T08:05:29;10.55;;;4.63;;
11823;SDS011;5969;50.780;7.726;2024-02-21T08:07:56;8.30;;;4.25;;
11823;SDS011;5969;50.780;7.726;2024-02-21T08:10:27;12.70;;;5.18;;
11823;SDS011;5969;50.780;7.726;2024-02-21T08:12:54;11.88;;;4.20;;
11823;SDS011;5969;50.780;7.726;2024-02-21T08:15:21;6.22;;;4.40;;
11823;SDS011;5969;50.780;7.726;2024-02-21T08:17:57;9.27;;;4.40;;
11823;SDS011;5969;50.780;7.726;2024-02-21T08:20:26;8.07;;;4.13;;
11823;SDS011;5969;50.780;7.726;2024-02-21T08:22:56;11.38;;;4.38;;
11823;SDS011;5969;50.780;7.726;2024-02-21T08:25:23;7.88;;;3.95;;
11823;SDS011;5969;50.780;7.726;2024-02-21T08:27:57;10.50;;;5.20;;
11823;SDS011;5969;50.780;7.726;2024-02-21T08:30:25;9.77;;;4.47;;
11823;SDS011;5969;50.780;7.726;2024-02-21T08:32:52;7.25;;;4.40;;
11823;SDS011;5969;50.780;7.726;2024-02-21T08:35:22;8.98;;;4.13;;
11823;SDS011;5969;50.780;7.726;2024-02-21T08:37:51;9.77;;;4.80;;
11823;SDS011;5969;50.780;7.726;2024-02-21T08:40:19;10.50;;;5.15;;
11823;SDS011;5969;50.780;7.726;2024-02-21T08:42:46;7.38;;;4.07;;
11823;SDS011;5969;50.780;7.726;2024-02-21T08:45:17;7.03;;;4.57;;
11823;SDS011;5969;50.780;7.726;2024-02-21T08:47:45;9.02;;;4.30;;
11823;SDS011;5969;50.780;7.726;2024-02-21T08:50:15;10.30;;;4.47;;
11823;SDS011;5969;50.780;7.726;2024-02-21T08:52:45;9.50;;;4.53;;
11823;SDS011;5969;50.780;7.726;2024-02-21T08:55:15;9.75;;;4.40;;
11823;SDS011;5969;50.780;7.726;2024-02-21T08:57:47;9.98;;;4.28;;
11823;SDS011;5969;50.780;7.726;2024-02-21T09:00:23;10.15;;;4.72;;
11823;SDS011;5969;50.780;7.726;2024-02-21T09:02:56;7.60;;;3.90;;
11823;SDS011;5969;50.780;7.726;2024-02-21T09:05:23;8.25;;;4.28;;
11823;SDS011;5969;50.780;7.726;2024-02-21T09:07:53;8.18;;;3.78;;
11823;SDS011;5969;50.780;7.726;2024-02-21T09:10:23;10.40;;;5.13;;
11823;SDS011;5969;50.780;7.726;2024-02-21T09:12:55;7.50;;;4.35;;
11823;SDS011;5969;50.780;7.726;2024-02-21T09:15:25;10.50;;;4.78;;
11823;SDS011;5969;50.780;7.726;2024-02-21T09:17:53;7.57;;;3.78;;
11823;SDS011;5969;50.780;7.726;2024-02-21T09:20:25;9.30;;;4.50;;
11823;SDS011;5969;50.780;7.726;2024-02-21T09:22:57;10.32;;;4.68;;
11823;SDS011;5969;50.780;7.726;2024-02-21T09:25:27;14.10;;;3.90;;
11823;SDS011;5969;50.780;7.726;2024-02-21T09:27:57;11.70;;;4.10;;
11823;SDS011;5969;50.780;7.726;2024-02-21T09:30:29;13.35;;;4.20;;
11823;SDS011;5969;50.780;7.726;2024-02-21T09:32:59;13.13;;;4.28;;
11823;SDS011;5969;50.780;7.726;2024-02-21T09:35:33;10.88;;;4.47;;
11823;SDS011;5969;50.780;7.726;2024-02-21T09:38:03;7.75;;;3.80;;
11823;SDS011;5969;50.780;7.726;2024-02-21T09:40:33;10.05;;;4.28;;
11823;SDS011;5969;50.780;7.726;2024-02-21T09:43:04;5.03;;;3.60;;
11823;SDS011;5969;50.780;7.726;2024-02-21T09:45:35;7.78;;;3.75;;
11823;SDS011;5969;50.780;7.726;2024-02-21T09:48:27;11.35;;;4.07;;
11823;SDS011;5969;50.780;7.726;2024-02-21T09:50:57;9.07;;;4.28;;
11823;SDS011;5969;50.780;7.726;2024-02-21T09:53:29;9.45;;;4.50;;
11823;SDS011;5969;50.780;7.726;2024-02-21T09:55:57;8.80;;;4.25;;
11823;SDS011;5969;50.780;7.726;2024-02-21T09:58:27;9.00;;;4.55;;
11823;SDS011;5969;50.780;7.726;2024-02-21T10:00:58;9.23;;;4.15;;
11823;SDS011;5969;50.780;7.726;2024-02-21T10:03:29;8.35;;;3.90;;
11823;SDS011;5969;50.780;7.726;2024-02-21T10:06:01;14.30;;;4.78;;
11823;SDS011;5969;50.780;7.726;2024-02-21T10:08:28;11.90;;;4.38;;
11823;SDS011;5969;50.780;7.726;2024-02-21T10:10:55;9.60;;;4.20;;
11823;SDS011;5969;50.780;7.726;2024-02-21T10:13:25;7.78;;;4.13;;
11823;SDS011;5969;50.780;7.726;2024-02-21T10:16:08;10.68;;;3.92;;
11823;SDS011;5969;50.780;7.726;2024-02-21T10:18:35;8.73;;;4.70;;
11823;SDS011;5969;50.780;7.726;2024-02-21T10:21:11;10.98;;;4.70;;
11823;SDS011;5969;50.780;7.726;2024-02-21T10:23:44;10.63;;;4.60;;
11823;SDS011;5969;50.780;7.726;2024-02-21T10:26:12;9.73;;;4.47;;
11823;SDS011;5969;50.780;7.726;2024-02-21T10:28:39;11.48;;;4.80;;
11823;SDS011;5969;50.780;7.726;2024-02-21T10:31:09;9.20;;;4.43;;
11823;SDS011;5969;50.780;7.726;2024-02-21T10:33:37;7.18;;;4.32;;
11823;SDS011;5969;50.780;7.726;2024-02-21T10:36:07;9.82;;;4.43;;
11823;SDS011;5969;50.780;7.726;2024-02-21T10:38:36;8.95;;;4.47;;
11823;SDS011;5969;50.780;7.726;2024-02-21T10:41:03;12.80;;;4.38;;
11823;SDS011;5969;50.780;7.726;2024-02-21T10:43:32;10.93;;;4.65;;
11823;SDS011;5969;50.780;7.726;2024-02-21T10:46:01;9.23;;;4.80;;
11823;SDS011;5969;50.780;7.726;2024-02-21T10:48:33;10.13;;;4.53;;
11823;SDS011;5969;50.780;7.726;2024-02-21T10:51:03;7.57;;;4.22;;
11823;SDS011;5969;50.780;7.726;2024-02-21T10:53:34;10.27;;;4.47;;
11823;SDS011;5969;50.780;7.726;2024-02-21T10:56:06;7.63;;;4.10;;
11823;SDS011;5969;50.780;7.726;2024-02-21T10:58:36;7.25;;;3.60;;
11823;SDS011;5969;50.780;7.726;2024-02-21T11:01:04;11.02;;;4.32;;
11823;SDS011;5969;50.780;7.726;2024-02-21T11:03:34;11.25;;;4.80;;
11823;SDS011;5969;50.780;7.726;2024-02-21T11:06:01;7.03;;;3.65;;
11823;SDS011;5969;50.780;7.726;2024-02-21T11:08:30;11.45;;;4.35;;
11823;SDS011;5969;50.780;7.726;2024-02-21T11:10:58;9.40;;;4.00;;
11823;SDS011;5969;50.780;7.726;2024-02-21T11:13:32;9.75;;;4.03;;
11823;SDS011;5969;50.780;7.726;2024-02-21T11:16:06;10.48;;;3.83;;
11823;SDS011;5969;50.780;7.726;2024-02-21T11:18:36;6.25;;;3.83;;
11823;SDS011;5969;50.780;7.726;2024-02-21T11:21:03;6.72;;;3.88;;
11823;SDS011;5969;50.780;7.726;2024-02-21T11:23:31;6.72;;;3.78;;
11823;SDS011;5969;50.780;7.726;2024-02-21T11:28:32;7.20;;;3.88;;
11823;SDS011;5969;50.780;7.726;2024-02-21T11:31:08;7.07;;;3.45;;
11823;SDS011;5969;50.780;7.726;2024-02-21T11:33:40;8.07;;;3.70;;
11823;SDS011;5969;50.780;7.726;2024-02-21T11:36:07;8.93;;;3.92;;
11823;SDS011;5969;50.780;7.726;2024-02-21T11:38:35;7.45;;;3.72;;
11823;SDS011;5969;50.780;7.726;2024-02-21T11:41:02;6.85;;;3.63;;
11823;SDS011;5969;50.780;7.726;2024-02-21T11:43:29;7.15;;;3.70;;
11823;SDS011;5969;50.780;7.726;2024-02-21T11:45:59;7.07;;;3.60;;
11823;SDS011;5969;50.780;7.726;2024-02-21T11:48:28;6.30;;;3.75;;
11823;SDS011;5969;50.780;7.726;2024-02-21T11:50:59;8.63;;;3.88;;
11823;SDS011;5969;50.780;7.726;2024-02-21T11:53:29;10.27;;;4.30;;
11823;SDS011;5969;50.780;7.726;2024-02-21T11:55:58;8.55;;;4.22;;
11823;SDS011;5969;50.780;7.726;2024-02-21T11:58:25;7.80;;;4.28;;
11823;SDS011;5969;50.780;7.726;2024-02-21T12:00:55;6.28;;;3.78;;
11823;SDS011;5969;50.780;7.726;2024-02-21T12:03:23;10.20;;;4.28;;
11823;SDS011;5969;50.780;7.726;2024-02-21T12:05:50;9.55;;;3.67;;
11823;SDS011;5969;50.780;7.726;2024-02-21T12:08:23;8.88;;;4.22;;
11823;SDS011;5969;50.780;7.726;2024-02-21T12:10:50;6.88;;;3.50;;
11823;SDS011;5969;50.780;7.726;2024-02-21T12:13:17;6.88;;;3.55;;
11823;SDS011;5969;50.780;7.726;2024-02-21T12:15:49;10.18;;;4.10;;
11823;SDS011;5969;50.780;7.726;2024-02-21T12:18:16;9.85;;;3.83;;
11823;SDS011;5969;50.780;7.726;2024-02-21T12:20:44;7.80;;;3.20;;
11823;SDS011;5969;50.780;7.726;2024-02-21T12:23:14;6.43;;;3.58;;
11823;SDS011;5969;50.780;7.726;2024-02-21T12:25:43;7.85;;;3.28;;
11823;SDS011;5969;50.780;7.726;2024-02-21T12:28:10;5.57;;;2.95;;
11823;SDS011;5969;50.780;7.726;2024-02-21T12:30:38;8.25;;;3.22;;
11823;SDS011;5969;50.780;7.726;2024-02-21T12:33:05;8.75;;;3.20;;
11823;SDS011;5969;50.780;7.726;2024-02-21T12:35:32;9.88;;;3.13;;
11823;SDS011;5969;50.780;7.726;2024-02-21T12:37:59;6.22;;;3.25;;
11823;SDS011;5969;50.780;7.726;2024-02-21T12:40:27;7.38;;;2.63;;
11823;SDS011;5969;50.780;7.726;2024-02-21T12:42:59;7.68;;;3.10;;
11823;SDS011;5969;50.780;7.726;2024-02-21T12:45:27;6.15;;;2.92;;
11823;SDS011;5969;50.780;7.726;2024-02-21T12:47:55;6.32;;;3.03;;
11823;SDS011;5969;50.780;7.726;2024-02-21T12:50:23;5.55;;;3.22;;
11823;SDS011;5969;50.780;7.726;2024-02-21T12:52:50;5.57;;;2.65;;
11823;SDS011;5969;50.780;7.726;2024-02-21T12:55:18;6.65;;;2.95;;
11823;SDS011;5969;50.780;7.726;2024-02-21T12:57:45;8.02;;;2.78;;
11823;SDS011;5969;50.780;7.726;2024-02-21T13:00:14;7.60;;;2.80;;
11823;SDS011;5969;50.780;7.726;2024-02-21T13:02:41;8.98;;;3.00;;
11823;SDS011;5969;50.780;7.726;2024-02-21T13:05:09;8.13;;;3.10;;
11823;SDS011;5969;50.780;7.726;2024-02-21T13:07:37;8.75;;;2.90;;
11823;SDS011;5969;50.780;7.726;2024-02-21T13:10:04;5.07;;;2.60;;
11823;SDS011;5969;50.780;7.726;2024-02-21T13:12:34;6.75;;;2.60;;
11823;SDS011;5969;50.780;7.726;2024-02-21T13:15:01;8.45;;;3.25;;
11823;SDS011;5969;50.780;7.726;2024-02-21T13:17:30;9.15;;;3.13;;
11823;SDS011;5969;50.780;7.726;2024-02-21T13:19:58;5.78;;;2.72;;
11823;SDS011;5969;50.780;7.726;2024-02-21T13:22:25;7.75;;;2.97;;
11823;SDS011;5969;50.780;7.726;2024-02-21T13:24:52;7.40;;;2.67;;
11823;SDS011;5969;50.780;7.726;2024-02-21T13:27:19;7.95;;;2.65;;
11823;SDS011;5969;50.780;7.726;2024-02-21T13:29:47;5.38;;;2.38;;
11823;SDS011;5969;50.780;7.726;2024-02-21T13:32:14;9.27;;;2.65;;
11823;SDS011;5969;50.780;7.726;2024-02-21T13:34:43;5.28;;;2.20;;
11823;SDS011;5969;50.780;7.726;2024-02-21T13:37:10;6.20;;;2.47;;
11823;SDS011;5969;50.780;7.726;2024-02-21T13:39:38;6.25;;;2.63;;
11823;SDS011;5969;50.780;7.726;2024-02-21T13:42:06;6.57;;;2.22;;
11823;SDS011;5969;50.780;7.726;2024-02-21T13:44:33;5.10;;;2.47;;
11823;SDS011;5969;50.780;7.726;2024-02-21T13:47:01;5.82;;;2.53;;
11823;SDS011;5969;50.780;7.726;2024-02-21T13:49:29;6.00;;;2.45;;
11823;SDS011;5969;50.780;7.726;2024-02-21T13:51:58;6.88;;;2.20;;
11823;SDS011;5969;50.780;7.726;2024-02-21T13:54:25;5.80;;;2.15;;
11823;SDS011;5969;50.780;7.726;2024-02-21T13:56:52;4.70;;;1.90;;
11823;SDS011;5969;50.780;7.726;2024-02-21T13:59:19;3.53;;;1.73;;
11823;SDS011;5969;50.780;7.726;2024-02-21T14:01:46;5.55;;;2.03;;
11823;SDS011;5969;50.780;7.726;2024-02-21T14:04:14;5.63;;;2.00;;
11823;SDS011;5969;50.780;7.726;2024-02-21T14:06:41;3.88;;;1.90;;
11823;SDS011;5969;50.780;7.726;2024-02-21T14:09:10;8.50;;;2.55;;
11823;SDS011;5969;50.780;7.726;2024-02-21T14:11:37;8.20;;;2.03;;
11823;SDS011;5969;50.780;7.726;2024-02-21T14:14:05;5.85;;;1.92;;
11823;SDS011;5969;50.780;7.726;2024-02-21T14:16:32;10.10;;;2.22;;
11823;SDS011;5969;50.780;7.726;2024-02-21T14:18:59;5.90;;;1.77;;
11823;SDS011;5969;50.780;7.726;2024-02-21T14:21:27;6.85;;;2.45;;
11823;SDS011;5969;50.780;7.726;2024-02-21T14:23:54;5.63;;;1.90;;
11823;SDS011;5969;50.780;7.726;2024-02-21T14:26:24;5.97;;;2.08;;
11823;SDS011;5969;50.780;7.726;2024-02-21T14:28:51;4.80;;;1.83;;
11823;SDS011;5969;50.780;7.726;2024-02-21T14:31:18;8.77;;;2.33;;
11823;SDS011;5969;50.780;7.726;2024-02-21T14:33:46;5.32;;;1.90;;
11823;SDS011;5969;50.780;7.726;2024-02-21T14:36:13;6.75;;;1.77;;
11823;SDS011;5969;50.780;7.726;2024-02-21T14:38:41;4.60;;;1.73;;
11823;SDS011;5969;50.780;7.726;2024-02-21T14:41:08;4.53;;;1.90;;
11823;SDS011;5969;50.780;7.726;2024-02-21T14:43:38;5.32;;;1.70;;
11823;SDS011;5969;50.780;7.726;2024-02-21T14:46:05;5.22;;;2.30;;
11823;SDS011;5969;50.780;7.726;2024-02-21T14:48:32;5.50;;;1.80;;
11823;SDS011;5969;50.780;7.726;2024-02-21T14:51:01;5.18;;;1.90;;
11823;SDS011;5969;50.780;7.726;2024-02-21T14:53:28;6.43;;;1.83;;
11823;SDS011;5969;50.780;7.726;2024-02-21T14:55:56;4.88;;;1.75;;
11823;SDS011;5969;50.780;7.726;2024-02-21T14:58:24;4.57;;;1.83;;
11823;SDS011;5969;50.780;7.726;2024-02-21T15:00:52;7.28;;;2.00;;
11823;SDS011;5969;50.780;7.726;2024-02-21T15:03:20;3.05;;;1.70;;
11823;SDS011;5969;50.780;7.726;2024-02-21T15:05:47;6.90;;;1.70;;